Time;durP1;ratioP1;P1;durP2;ratioP2;P2;SDS_P1;SDS_P2;PMS_P1;PMS_P2;Temp;Humidity;BMP_temperature;BMP_pressure;BME280_temperature;BME280_humidity;BME280_pressure;Samples;Min_cycle;Max_cycle;Signal;HPM_P1;HPM_P2
2022/01/04 00:01:22;;;;;;;18.60;11.38;;;8.70;99.90;;;;;;5074636;28;20115;-65
2022/01/04 00:03:48;;;;;;;21.92;13.27;;;8.60;99.90;;;;;;5074670;28;20032;-65
2022/01/04 00:06:14;;;;;;;25.27;14.05;;;8.60;99.90;;;;;;5074958;28;20473;-65
2022/01/04 00:08:39;;;;;;;25.50;14.75;;;8.70;99.90;;;;;;5074223;28;20075;-65
2022/01/04 00:11:08;;;;;;;34.15;17.20;;;8.60;99.90;;;;;;5073665;28;20382;-65
2022/01/04 00:13:34;;;;;;;28.98;16.98;;;8.60;99.90;;;;;;5074083;28;20374;-65
2022/01/04 00:16:02;;;;;;;30.60;16.45;;;8.60;99.90;;;;;;5056478;28;20028;-65
2022/01/04 00:18:28;;;;;;;28.00;16.67;;;8.60;99.90;;;;;;5056441;28;20024;-65
2022/01/04 00:20:53;;;;;;;29.92;15.70;;;8.60;99.90;;;;;;5074604;28;20493;-65
2022/01/04 00:23:19;;;;;;;26.58;15.27;;;8.50;99.90;;;;;;5074288;28;20052;-65
2022/01/04 00:25:46;;;;;;;24.13;13.93;;;8.50;99.90;;;;;;5073984;28;20029;-65
2022/01/04 00:28:11;;;;;;;23.85;14.57;;;8.50;99.90;;;;;;5055954;28;20029;-65
2022/01/04 00:30:39;;;;;;;24.98;13.73;;;8.50;99.90;;;;;;5055969;28;20379;-65
2022/01/04 00:33:07;;;;;;;23.95;12.82;;;8.50;99.90;;;;;;5074398;28;20451;-65
2022/01/04 00:35:32;;;;;;;20.00;13.05;;;8.40;99.90;;;;;;5074386;28;20020;-65
2022/01/04 00:37:58;;;;;;;22.70;12.35;;;8.50;99.90;;;;;;5074327;28;20480;-65
2022/01/04 00:40:25;;;;;;;23.80;12.52;;;8.40;99.90;;;;;;5072622;28;20028;-65
2022/01/04 00:42:52;;;;;;;18.55;11.10;;;8.40;99.90;;;;;;5074026;28;20047;-65
2022/01/04 00:45:18;;;;;;;20.60;10.93;;;8.40;99.90;;;;;;5074267;28;20061;-65
2022/01/04 00:49:09;;;;;;;19.05;10.05;;;8.40;99.90;;;;;;5073597;28;20031;-65
2022/01/04 00:50:30;;;;;;;15.35;9.45;;;8.30;99.90;;;;;;5073453;28;20031;-65
2022/01/04 00:52:57;;;;;;;23.60;11.00;;;8.30;99.90;;;;;;5072336;28;20393;-65
2022/01/04 00:55:23;;;;;;;16.63;10.02;;;8.30;99.90;;;;;;5073346;28;20021;-65
2022/01/04 00:57:48;;;;;;;18.88;9.65;;;8.30;99.90;;;;;;5055644;28;20127;-65
2022/01/04 01:00:16;;;;;;;17.83;9.38;;;8.30;99.90;;;;;;5072640;28;20060;-65
2022/01/04 01:02:42;;;;;;;14.50;9.18;;;8.20;99.90;;;;;;5073628;28;20020;-65
2022/01/04 01:05:08;;;;;;;16.83;9.13;;;8.20;99.90;;;;;;5056066;28;20346;-65
2022/01/04 01:07:35;;;;;;;22.65;9.52;;;8.20;99.90;;;;;;5071926;28;20044;-65
2022/01/04 01:12:48;;;;;;;15.95;9.65;;;8.20;99.90;;;;;;5072354;28;20393;-65
2022/01/04 01:15:14;;;;;;;15.70;9.15;;;8.20;99.90;;;;;;5072504;28;20039;-65
2022/01/04 01:17:40;;;;;;;12.77;8.13;;;8.20;99.90;;;;;;5073636;28;20043;-65
2022/01/04 01:20:08;;;;;;;15.13;8.27;;;8.20;99.90;;;;;;5072080;28;20028;-65
2022/01/04 01:22:34;;;;;;;12.80;7.70;;;8.20;99.90;;;;;;5073848;28;20024;-65
2022/01/04 01:24:59;;;;;;;19.10;8.20;;;8.10;99.90;;;;;;5072373;28;20032;-65
2022/01/04 01:27:25;;;;;;;14.63;8.52;;;8.10;99.90;;;;;;5071941;28;20029;-65
2022/01/04 01:29:50;;;;;;;15.70;8.38;;;8.10;99.90;;;;;;5071962;28;20063;-65
2022/01/04 01:32:17;;;;;;;20.50;8.98;;;8.10;99.90;;;;;;5073470;28;20025;-65
2022/01/04 01:34:42;;;;;;;16.58;9.45;;;8.10;99.90;;;;;;5072297;28;20078;-65
2022/01/04 01:37:09;;;;;;;20.27;10.43;;;8.10;99.90;;;;;;5056074;28;20373;-65
2022/01/04 01:39:35;;;;;;;18.92;10.60;;;8.10;99.90;;;;;;5072263;28;20049;-65
2022/01/04 01:42:01;;;;;;;17.63;11.32;;;8.10;99.90;;;;;;5073672;28;20378;-64
2022/01/04 01:44:29;;;;;;;20.02;11.40;;;8.10;99.90;;;;;;5073054;28;20032;-65
2022/01/04 01:46:54;;;;;;;21.45;12.30;;;8.10;99.90;;;;;;5072195;28;20021;-65
2022/01/04 01:49:20;;;;;;;20.13;11.90;;;8.00;99.90;;;;;;5072077;28;20107;-65
2022/01/04 01:51:45;;;;;;;23.75;12.50;;;8.00;99.90;;;;;;5073308;28;20027;-65
2022/01/04 01:54:11;;;;;;;25.35;13.00;;;8.00;99.90;;;;;;5072079;28;20024;-65
2022/01/04 01:56:37;;;;;;;28.30;13.07;;;8.00;99.90;;;;;;5072969;28;20032;-65
2022/01/04 01:59:02;;;;;;;21.40;12.73;;;8.00;99.90;;;;;;5072106;28;20032;-65
2022/01/04 02:01:28;;;;;;;20.67;12.70;;;8.00;99.90;;;;;;5073235;28;20079;-65
2022/01/04 02:03:53;;;;;;;22.30;12.90;;;8.00;99.90;;;;;;5072926;28;20519;-65
2022/01/04 02:06:21;;;;;;;24.83;13.15;;;7.90;99.90;;;;;;5071673;28;20021;-65
2022/01/04 02:08:47;;;;;;;24.35;12.73;;;7.90;99.90;;;;;;5071545;28;20493;-66
2022/01/04 02:11:13;;;;;;;28.58;12.75;;;7.90;99.90;;;;;;5071607;28;20021;-65
2022/01/04 02:13:38;;;;;;;26.90;13.68;;;7.90;99.90;;;;;;5071905;28;20028;-65
2022/01/04 02:16:07;;;;;;;27.23;14.20;;;7.90;99.90;;;;;;5057220;28;20462;-65
2022/01/04 02:18:32;;;;;;;25.17;14.52;;;7.90;99.90;;;;;;5075149;28;20523;-65
2022/01/04 02:20:58;;;;;;;25.02;14.40;;;7.90;99.90;;;;;;5075399;28;20119;-64
2022/01/04 02:23:24;;;;;;;30.90;15.00;;;7.90;99.90;;;;;;5076859;28;20489;-65
2022/01/04 02:25:50;;;;;;;32.85;15.95;;;7.90;99.90;;;;;;5075123;28;20393;-65
2022/01/04 02:28:20;;;;;;;33.25;14.48;;;7.90;99.90;;;;;;5074875;28;20027;-65
2022/01/04 02:30:46;;;;;;;33.30;14.60;;;7.90;99.90;;;;;;5076409;28;20426;-65
2022/01/04 02:33:11;;;;;;;32.15;15.55;;;7.80;99.90;;;;;;5058228;28;20110;-65
2022/01/04 02:35:37;;;;;;;28.90;14.57;;;7.80;99.90;;;;;;5075484;28;20040;-65
2022/01/04 02:38:03;;;;;;;26.88;14.30;;;7.80;99.90;;;;;;5076607;28;20351;-65
2022/01/04 02:40:30;;;;;;;29.05;14.48;;;7.80;99.90;;;;;;5075149;28;20362;-65
2022/01/04 02:42:55;;;;;;;27.08;14.43;;;7.80;99.90;;;;;;5075106;28;20385;-65
2022/01/04 02:45:22;;;;;;;25.85;14.60;;;7.70;99.90;;;;;;5075046;28;20028;-65
2022/01/04 02:47:48;;;;;;;24.75;13.32;;;7.70;99.90;;;;;;5074975;28;20027;-65
2022/01/04 02:50:13;;;;;;;27.08;14.00;;;7.70;99.90;;;;;;5074641;28;20025;-65
2022/01/04 02:52:39;;;;;;;27.80;13.98;;;7.70;99.90;;;;;;5075181;28;20025;-65
2022/01/04 02:55:07;;;;;;;23.92;14.32;;;7.70;99.90;;;;;;5074861;28;20089;-65
2022/01/04 02:57:34;;;;;;;27.52;14.35;;;7.70;99.90;;;;;;5076208;28;20032;-65
2022/01/04 02:59:59;;;;;;;25.92;13.70;;;7.70;99.90;;;;;;5075262;28;20025;-65
2022/01/04 03:02:26;;;;;;;25.35;13.77;;;7.70;99.90;;;;;;5075021;28;20034;-65
2022/01/04 03:04:51;;;;;;;26.30;12.55;;;7.70;99.90;;;;;;5074658;28;20036;-65
2022/01/04 03:07:17;;;;;;;25.00;12.55;;;7.70;99.90;;;;;;5074059;28;20052;-65
2022/01/04 03:09:43;;;;;;;20.85;11.70;;;7.60;99.90;;;;;;5076018;28;20028;-65
2022/01/04 03:12:09;;;;;;;24.05;12.38;;;7.60;99.90;;;;;;5074543;28;20024;-65
2022/01/04 03:14:35;;;;;;;19.65;10.75;;;7.60;99.90;;;;;;5075083;28;20020;-65
2022/01/04 03:17:01;;;;;;;21.98;11.77;;;7.60;99.90;;;;;;5074126;28;20031;-65
2022/01/04 03:19:26;;;;;;;25.75;12.80;;;7.60;99.90;;;;;;5074680;28;20031;-65
2022/01/04 03:21:52;;;;;;;27.40;12.55;;;7.60;99.90;;;;;;5075237;28;20033;-65
2022/01/04 03:24:18;;;;;;;23.55;12.40;;;7.60;99.90;;;;;;5057279;28;20028;-65
2022/01/04 03:26:44;;;;;;;22.67;12.00;;;7.60;99.90;;;;;;5074694;28;20081;-65
2022/01/04 03:29:12;;;;;;;25.77;12.52;;;7.60;99.90;;;;;;5073749;28;20439;-65
2022/01/04 03:31:38;;;;;;;22.50;11.88;;;7.60;99.90;;;;;;5073748;28;20405;-65
2022/01/04 03:34:05;;;;;;;21.23;11.43;;;7.60;99.90;;;;;;5075511;28;20036;-65
2022/01/04 03:36:31;;;;;;;24.77;11.90;;;7.60;99.90;;;;;;5074034;28;20151;-65
2022/01/04 03:38:58;;;;;;;22.05;12.00;;;7.60;99.90;;;;;;5073986;28;20107;-65
2022/01/04 03:41:25;;;;;;;26.05;13.05;;;7.60;99.90;;;;;;5075137;28;20028;-65
2022/01/04 03:43:51;;;;;;;22.95;12.80;;;7.60;99.90;;;;;;5075300;28;20476;-65
2022/01/04 03:46:18;;;;;;;25.90;12.13;;;7.60;99.90;;;;;;5073818;28;20025;-66
2022/01/04 03:48:44;;;;;;;23.48;12.23;;;7.60;99.90;;;;;;5056743;28;20113;-66
2022/01/04 03:51:11;;;;;;;24.45;13.73;;;7.60;99.90;;;;;;5073463;28;20017;-65
2022/01/04 03:53:37;;;;;;;23.90;13.05;;;7.60;99.90;;;;;;5073983;28;20017;-65
2022/01/04 03:56:03;;;;;;;24.42;12.45;;;7.60;99.90;;;;;;5074828;28;20412;-65
2022/01/04 03:58:29;;;;;;;30.92;14.63;;;7.60;99.90;;;;;;5073207;28;20032;-65
2022/01/04 04:00:54;;;;;;;25.80;12.90;;;7.60;99.90;;;;;;5073544;28;20090;-65
2022/01/04 04:03:21;;;;;;;27.10;13.80;;;7.60;99.90;;;;;;5073523;28;20032;-65
2022/01/04 04:05:46;;;;;;;24.92;13.50;;;7.60;99.90;;;;;;5074893;28;20466;-65
2022/01/04 04:08:12;;;;;;;29.70;13.95;;;7.60;99.90;;;;;;5072990;28;20052;-64
2022/01/04 04:10:37;;;;;;;26.55;13.55;;;7.60;99.90;;;;;;5073547;28;20063;-65
2022/01/04 04:13:03;;;;;;;28.17;13.38;;;7.60;99.90;;;;;;5074780;28;20440;-65
2022/01/04 04:15:29;;;;;;;24.90;13.45;;;7.60;99.90;;;;;;5074431;28;20028;-65
2022/01/04 04:17:55;;;;;;;23.17;12.73;;;7.60;99.90;;;;;;5073229;28;20031;-65
2022/01/04 04:20:21;;;;;;;23.30;12.38;;;7.60;99.90;;;;;;5072822;28;20024;-65
2022/01/04 04:22:47;;;;;;;22.17;11.52;;;7.60;99.90;;;;;;5073160;28;20347;-65
2022/01/04 04:25:12;;;;;;;24.52;11.90;;;7.60;99.90;;;;;;5074270;28;20024;-65
2022/01/04 04:27:38;;;;;;;23.20;12.02;;;7.50;99.90;;;;;;5072638;28;20033;-65
2022/01/04 04:30:04;;;;;;;21.92;11.32;;;7.50;99.90;;;;;;5072693;28;20385;-65
2022/01/04 04:32:30;;;;;;;24.85;11.88;;;7.50;99.90;;;;;;5073659;28;20032;-65
2022/01/04 04:34:55;;;;;;;25.92;11.95;;;7.50;99.90;;;;;;5074429;28;20025;-65
2022/01/04 04:37:21;;;;;;;21.70;11.43;;;7.50;99.90;;;;;;5072986;28;20535;-65
2022/01/04 04:39:47;;;;;;;24.02;12.55;;;7.50;99.90;;;;;;5073940;28;20059;-65
2022/01/04 04:42:12;;;;;;;26.52;13.18;;;7.50;99.90;;;;;;5073108;28;20454;-65
2022/01/04 04:44:38;;;;;;;27.15;13.27;;;7.50;99.90;;;;;;5074266;28;20031;-65
2022/01/04 04:47:04;;;;;;;25.38;13.15;;;7.50;99.90;;;;;;5074307;28;20028;-65
2022/01/04 04:49:29;;;;;;;25.05;13.38;;;7.50;99.90;;;;;;5074144;28;20028;-65
2022/01/04 04:51:57;;;;;;;26.10;14.32;;;7.50;99.90;;;;;;5072756;28;20040;-65
2022/01/04 04:54:23;;;;;;;27.98;14.65;;;7.50;99.90;;;;;;5073273;28;20362;-65
2022/01/04 04:56:48;;;;;;;28.50;14.70;;;7.50;99.90;;;;;;5074129;28;20024;-65
2022/01/04 04:59:14;;;;;;;32.13;16.00;;;7.50;99.90;;;;;;5073854;28;20056;-65
2022/01/04 05:01:39;;;;;;;32.17;16.00;;;7.50;99.90;;;;;;5055627;28;20452;-65
2022/01/04 05:04:05;;;;;;;31.77;15.20;;;7.50;99.90;;;;;;5056136;28;20082;-65
2022/01/04 05:06:30;;;;;;;32.55;15.63;;;7.50;99.90;;;;;;5072870;28;20024;-65
2022/01/04 05:08:56;;;;;;;28.00;15.35;;;7.50;99.90;;;;;;5072235;28;20131;-65
2022/01/04 05:11:21;;;;;;;31.80;15.52;;;7.40;99.90;;;;;;5072542;28;20066;-65
2022/01/04 05:13:47;;;;;;;29.98;15.23;;;7.50;99.90;;;;;;5072162;28;20135;-65
2022/01/04 05:16:12;;;;;;;34.60;16.45;;;7.50;99.90;;;;;;5072490;28;20376;-65
2022/01/04 05:18:38;;;;;;;32.80;15.45;;;7.50;99.90;;;;;;5072085;28;20020;-65
2022/01/04 05:21:04;;;;;;;35.08;16.33;;;7.40;99.90;;;;;;5072455;28;20078;-65
2022/01/04 05:23:30;;;;;;;34.58;16.25;;;7.40;99.90;;;;;;5072136;28;20362;-65
2022/01/04 05:25:56;;;;;;;32.13;15.15;;;7.40;99.90;;;;;;5072188;28;20112;-65
2022/01/04 05:28:22;;;;;;;29.90;16.30;;;7.40;99.90;;;;;;5072324;28;20445;-65
2022/01/04 05:30:47;;;;;;;35.85;17.17;;;7.40;99.90;;;;;;5073784;28;20025;-65
2022/01/04 05:33:13;;;;;;;30.65;15.45;;;7.40;99.90;;;;;;5073523;28;20070;-65
2022/01/04 05:35:38;;;;;;;29.85;15.20;;;7.40;99.90;;;;;;5073368;28;20020;-65
2022/01/04 05:38:04;;;;;;;29.85;15.60;;;7.40;99.90;;;;;;5073722;28;20474;-65
2022/01/04 05:40:30;;;;;;;31.92;16.27;;;7.40;99.90;;;;;;5073715;28;20031;-65
2022/01/04 05:42:55;;;;;;;29.42;15.80;;;7.40;99.90;;;;;;5073019;28;20366;-65
2022/01/04 05:45:21;;;;;;;36.35;17.33;;;7.40;99.90;;;;;;5072486;28;20539;-65
2022/01/04 05:47:46;;;;;;;36.05;18.88;;;7.40;99.90;;;;;;5071706;28;20496;-65
2022/01/04 05:50:12;;;;;;;33.10;16.45;;;7.40;99.90;;;;;;5073617;28;20021;-65
2022/01/04 05:52:38;;;;;;;35.55;16.80;;;7.40;99.90;;;;;;5077146;28;20457;-65
2022/01/04 05:55:04;;;;;;;34.42;16.67;;;7.40;99.90;;;;;;5077427;28;20506;-65
2022/01/04 05:57:30;;;;;;;32.45;16.95;;;7.40;99.90;;;;;;5075924;28;20355;-65
2022/01/04 05:59:57;;;;;;;30.85;16.63;;;7.40;99.90;;;;;;5076337;28;20031;-65
2022/01/04 06:02:23;;;;;;;28.70;14.85;;;7.40;99.90;;;;;;5077273;28;20066;-65
2022/01/04 06:04:48;;;;;;;29.23;15.23;;;7.40;99.90;;;;;;5076658;28;20025;-65
2022/01/04 06:07:14;;;;;;;26.38;14.40;;;7.40;99.90;;;;;;5075689;28;20041;-65
2022/01/04 06:09:43;;;;;;;32.85;15.05;;;7.40;99.90;;;;;;5075270;28;20531;-65
2022/01/04 06:14:58;;;;;;;31.58;15.75;;;7.40;99.90;;;;;;5076746;28;20025;-65
2022/01/04 06:17:28;;;;;;;27.05;14.18;;;7.40;99.90;;;;;;5075765;28;20428;-65
2022/01/04 06:19:55;;;;;;;24.73;13.50;;;7.30;99.90;;;;;;5075131;28;20594;-65
2022/01/04 06:22:21;;;;;;;27.67;14.15;;;7.30;99.90;;;;;;5075499;28;20025;-65
2022/01/04 06:24:47;;;;;;;28.73;14.63;;;7.30;99.90;;;;;;5058889;28;20458;-65
2022/01/04 06:27:13;;;;;;;25.33;13.75;;;7.30;99.90;;;;;;5075630;28;20028;-65
2022/01/04 06:29:40;;;;;;;24.23;13.20;;;7.30;99.90;;;;;;5075289;28;20082;-65
2022/01/04 06:32:07;;;;;;;29.55;14.55;;;7.40;99.90;;;;;;5075006;28;20021;-65
2022/01/04 06:34:34;;;;;;;23.67;12.50;;;7.30;99.90;;;;;;5076663;28;20023;-65
2022/01/04 06:37:00;;;;;;;24.55;12.95;;;7.40;99.90;;;;;;5076577;28;20069;-65
2022/01/04 06:39:25;;;;;;;23.73;13.60;;;7.40;99.90;;;;;;5076264;28;20381;-65
2022/01/04 06:41:51;;;;;;;25.50;14.90;;;7.40;99.90;;;;;;5075889;28;20025;-65
2022/01/04 06:44:17;;;;;;;26.00;12.88;;;7.40;99.90;;;;;;5076547;28;20025;-65
2022/01/04 06:46:45;;;;;;;26.25;13.82;;;7.40;99.90;;;;;;5076438;28;20086;-65
2022/01/04 06:49:14;;;;;;;23.00;12.52;;;7.40;99.90;;;;;;5076058;28;20475;-65
2022/01/04 06:51:40;;;;;;;25.77;13.25;;;7.40;99.90;;;;;;5057799;28;20029;-65
2022/01/04 06:54:07;;;;;;;24.73;12.75;;;7.40;99.90;;;;;;5075275;28;20082;-65
2022/01/04 06:56:33;;;;;;;25.98;13.88;;;7.40;99.90;;;;;;5075101;28;20159;-65
2022/01/04 06:58:58;;;;;;;25.95;13.35;;;7.40;99.90;;;;;;5074262;28;20115;-65
2022/01/04 07:01:24;;;;;;;23.27;11.43;;;7.40;99.90;;;;;;5075134;28;20036;-65
2022/01/04 07:03:49;;;;;;;24.77;13.32;;;7.40;99.90;;;;;;5075635;28;20032;-64
2022/01/04 07:06:15;;;;;;;22.85;11.93;;;7.40;99.90;;;;;;5074188;28;20035;-65
2022/01/04 07:08:40;;;;;;;20.50;11.02;;;7.50;99.90;;;;;;5073927;28;20044;-65
2022/01/04 07:11:06;;;;;;;22.05;12.15;;;7.40;99.90;;;;;;5074271;28;20025;-65
2022/01/04 07:13:31;;;;;;;24.45;12.27;;;7.40;99.90;;;;;;5074487;28;20039;-65
2022/01/04 07:15:57;;;;;;;25.15;12.55;;;7.40;99.90;;;;;;5057400;28;20025;-65
2022/01/04 07:18:23;;;;;;;21.13;12.15;;;7.40;99.90;;;;;;5074384;28;20021;-65
2022/01/04 07:20:48;;;;;;;22.70;12.52;;;7.40;99.90;;;;;;5075234;28;20146;-65
2022/01/04 07:23:14;;;;;;;21.65;11.98;;;7.40;99.90;;;;;;5074034;28;20036;-65
2022/01/04 07:25:39;;;;;;;24.38;11.60;;;7.40;99.90;;;;;;5073923;28;20021;-65
2022/01/04 07:28:05;;;;;;;23.08;12.50;;;7.40;99.90;;;;;;5074662;28;20047;-65
2022/01/04 07:30:31;;;;;;;21.30;10.75;;;7.50;99.90;;;;;;5076488;28;20020;-65
2022/01/04 07:32:57;;;;;;;28.02;12.60;;;7.40;99.90;;;;;;5093468;28;20028;-65
2022/01/04 07:35:22;;;;;;;21.10;10.60;;;7.40;99.90;;;;;;5093291;28;20020;-65
2022/01/04 07:37:48;;;;;;;19.17;10.68;;;7.40;99.90;;;;;;5093732;28;20564;-65
2022/01/04 07:40:13;;;;;;;18.42;9.98;;;7.40;99.90;;;;;;5093403;28;20028;-65
2022/01/04 07:42:39;;;;;;;23.58;11.27;;;7.40;99.90;;;;;;5093556;28;20481;-65
2022/01/04 07:45:05;;;;;;;20.63;10.60;;;7.40;99.90;;;;;;5076829;28;20028;-65
2022/01/04 07:47:31;;;;;;;21.13;10.55;;;7.40;99.90;;;;;;5073312;28;20032;-71
2022/01/04 07:49:56;;;;;;;24.80;11.63;;;7.40;99.90;;;;;;5087695;28;20028;-70
2022/01/04 07:52:22;;;;;;;21.75;11.00;;;7.40;99.90;;;;;;5092343;28;20102;-70
2022/01/04 07:54:48;;;;;;;20.90;11.23;;;7.40;99.90;;;;;;5090325;28;20110;-70
2022/01/04 07:57:13;;;;;;;20.77;11.48;;;7.40;99.90;;;;;;5093068;28;20226;-72
2022/01/04 07:59:39;;;;;;;21.85;12.23;;;7.40;99.90;;;;;;5094289;28;20107;-72
2022/01/04 08:02:05;;;;;;;24.65;11.38;;;7.30;99.90;;;;;;5092535;28;20024;-72
2022/01/04 08:04:30;;;;;;;27.83;12.75;;;7.40;99.90;;;;;;5073471;28;20024;-71
2022/01/04 08:06:56;;;;;;;24.48;11.75;;;7.40;99.90;;;;;;5083146;28;20075;-72
2022/01/04 08:09:22;;;;;;;23.30;11.98;;;7.40;99.90;;;;;;5092585;28;20028;-72
2022/01/04 08:11:48;;;;;;;25.65;11.80;;;7.40;99.90;;;;;;5087808;28;20025;-72
2022/01/04 08:14:14;;;;;;;24.35;13.13;;;7.40;99.90;;;;;;5086918;28;20237;-72
2022/01/04 08:16:40;;;;;;;24.27;12.23;;;7.40;99.90;;;;;;5094535;28;20475;-72
2022/01/04 08:19:05;;;;;;;27.73;14.32;;;7.40;99.90;;;;;;5093624;28;20032;-72
2022/01/04 08:21:31;;;;;;;26.63;13.63;;;7.40;99.90;;;;;;5094122;28;20476;-72
2022/01/04 08:23:56;;;;;;;23.42;12.98;;;7.40;99.90;;;;;;5109505;28;20031;-72
2022/01/04 08:26:22;;;;;;;26.73;14.32;;;7.40;99.90;;;;;;5093700;28;20070;-72
2022/01/04 08:28:47;;;;;;;23.77;12.45;;;7.50;99.90;;;;;;5092611;28;20039;-72
2022/01/04 08:31:13;;;;;;;32.03;14.55;;;7.50;99.90;;;;;;5058084;28;20024;-71
2022/01/04 08:33:39;;;;;;;26.77;13.30;;;7.40;99.90;;;;;;5098395;28;20024;-70
2022/01/04 08:36:07;;;;;;;27.15;13.35;;;7.40;99.90;;;;;;5075791;28;20028;-72
2022/01/04 08:38:33;;;;;;;26.65;12.90;;;7.40;99.90;;;;;;5075678;28;20034;-72
2022/01/04 08:40:58;;;;;;;29.35;13.35;;;7.40;99.90;;;;;;5075991;28;20032;-72
2022/01/04 08:43:26;;;;;;;23.08;13.43;;;7.50;99.90;;;;;;5092982;28;20538;-72
2022/01/04 08:45:52;;;;;;;27.33;12.98;;;7.50;99.90;;;;;;5091666;28;20055;-72
2022/01/04 08:48:17;;;;;;;24.50;13.18;;;7.50;99.90;;;;;;5086567;28;20060;-72
2022/01/04 08:50:44;;;;;;;27.10;13.35;;;7.50;99.90;;;;;;5088674;28;20028;-72
2022/01/04 08:53:11;;;;;;;22.05;12.20;;;7.50;99.90;;;;;;5075522;28;20432;-72
2022/01/04 08:55:38;;;;;;;29.58;13.73;;;7.50;99.90;;;;;;5099959;28;20072;-72
2022/01/04 08:58:04;;;;;;;26.50;13.20;;;7.50;99.90;;;;;;5092025;28;20031;-71
2022/01/04 09:00:30;;;;;;;25.38;12.80;;;7.50;99.90;;;;;;5075716;28;20076;-71
2022/01/04 09:02:55;;;;;;;26.35;13.20;;;7.50;99.90;;;;;;5086721;28;20031;-71
2022/01/04 09:05:21;;;;;;;27.67;13.13;;;7.50;99.90;;;;;;5092733;28;20028;-71
2022/01/04 09:07:46;;;;;;;29.55;14.70;;;7.50;99.90;;;;;;5091806;28;20470;-71
2022/01/04 09:10:12;;;;;;;30.05;15.57;;;7.50;99.90;;;;;;5075101;28;20028;-71
2022/01/04 09:12:49;;;;;;;26.55;13.52;;;7.50;99.90;;;;;;5081817;28;20029;-71
2022/01/04 09:15:30;;;;;;;28.63;14.07;;;7.50;99.90;;;;;;5072248;28;20025;-71
2022/01/04 09:18:52;;;;;;;33.63;15.77;;;7.50;99.90;;;;;;5083084;28;20071;-71
2022/01/04 09:20:47;;;;;;;25.05;12.85;;;7.60;99.90;;;;;;5092521;28;20392;-71
2022/01/04 09:23:18;;;;;;;30.30;13.70;;;7.50;99.90;;;;;;5102199;28;20020;-71
2022/01/04 09:25:44;;;;;;;28.95;14.48;;;7.50;99.90;;;;;;5093148;28;20020;-71
2022/01/04 09:28:10;;;;;;;29.45;14.57;;;7.60;99.90;;;;;;5078719;28;20024;-71
2022/01/04 09:30:36;;;;;;;24.02;14.25;;;7.60;99.90;;;;;;5097903;28;20484;-70
2022/01/04 09:33:02;;;;;;;30.40;14.60;;;7.60;99.90;;;;;;5096504;28;20032;-71
2022/01/04 09:35:28;;;;;;;29.77;15.35;;;7.60;99.90;;;;;;5091855;28;20071;-70
2022/01/04 09:37:54;;;;;;;26.40;13.82;;;7.70;99.90;;;;;;5102070;28;20439;-71
2022/01/04 09:40:19;;;;;;;28.63;15.25;;;7.60;99.90;;;;;;5096501;28;20020;-70
2022/01/04 09:42:48;;;;;;;32.05;15.75;;;7.60;99.90;;;;;;5089304;28;20028;-70
2022/01/04 09:45:15;;;;;;;29.88;14.43;;;7.60;99.90;;;;;;5107560;27;20084;-71
2022/01/04 09:47:40;;;;;;;28.70;14.07;;;7.60;99.90;;;;;;5081623;28;20473;-71
2022/01/04 09:50:10;;;;;;;29.30;15.23;;;7.60;99.90;;;;;;5076827;28;20039;-71
2022/01/04 09:52:39;;;;;;;33.58;16.85;;;7.60;99.90;;;;;;5077273;28;20016;-71
2022/01/04 09:55:05;;;;;;;30.63;14.63;;;7.60;99.90;;;;;;5088282;28;20107;-71
2022/01/04 09:57:30;;;;;;;25.48;15.02;;;7.60;99.90;;;;;;5094798;28;20107;-71
2022/01/04 09:59:57;;;;;;;31.35;14.02;;;7.70;99.90;;;;;;5083716;28;20079;-70
2022/01/04 10:02:30;;;;;;;29.55;14.02;;;7.70;99.90;;;;;;5097024;28;20048;-71
2022/01/04 10:05:19;;;;;;;25.45;12.65;;;7.70;99.90;;;;;;5077519;28;20115;-71
2022/01/04 10:07:46;;;;;;;24.55;11.90;;;7.80;99.90;;;;;;5075728;28;20387;-70
2022/01/04 10:10:15;;;;;;;18.90;10.68;;;7.80;99.90;;;;;;5076108;28;20074;-71
2022/01/04 10:12:51;;;;;;;21.20;10.60;;;7.80;99.90;;;;;;5076142;28;20447;-70
2022/01/04 10:15:45;;;;;;;22.23;10.73;;;7.80;99.90;;;;;;5096043;28;20108;-71
2022/01/04 10:23:55;;;;;;;22.13;9.73;;;7.90;99.90;;;;;;5102120;27;20396;-71
2022/01/04 10:26:30;;;;;;;;;;;7.90;99.90;;;;;;5093163;28;20027;-71
2022/01/04 10:28:55;;;;;;;17.20;8.95;;;7.90;99.90;;;;;;5091847;28;19943;-72
2022/01/04 10:31:21;;;;;;;19.58;8.82;;;7.90;99.90;;;;;;5103699;28;20054;-71
2022/01/04 10:33:53;;;;;;;17.05;8.73;;;7.90;99.90;;;;;;5101557;28;20069;-72
2022/01/04 10:36:21;;;;;;;16.70;9.18;;;7.80;99.90;;;;;;5109334;28;20070;-71
2022/01/04 10:38:48;;;;;;;20.65;10.07;;;7.80;99.90;;;;;;5114896;28;20761;-71
2022/01/04 10:41:23;;;;;;;20.25;10.25;;;7.80;99.90;;;;;;5109180;28;20392;-71
2022/01/04 10:44:03;;;;;;;19.95;9.88;;;7.80;99.90;;;;;;5100333;28;20021;-71
2022/01/04 10:46:53;;;;;;;23.08;9.95;;;7.90;99.90;;;;;;5101210;28;20380;-71
2022/01/04 10:49:22;;;;;;;19.05;8.90;;;7.80;99.90;;;;;;5111400;28;20047;-71
2022/01/04 10:52:07;;;;;;;23.75;10.52;;;7.80;99.90;;;;;;5106090;28;20605;-71
2022/01/04 10:54:32;;;;;;;17.55;9.30;;;7.90;99.90;;;;;;5109518;28;20040;-71
2022/01/04 10:57:07;;;;;;;20.17;10.07;;;7.80;99.90;;;;;;5081213;28;20120;-71
2022/01/04 10:59:33;;;;;;;17.75;9.88;;;7.80;99.90;;;;;;5090830;28;20023;-71
2022/01/04 11:01:58;;;;;;;18.00;9.75;;;7.80;99.90;;;;;;5090380;28;20020;-71
2022/01/04 11:04:24;;;;;;;17.52;9.30;;;7.80;99.90;;;;;;5089564;28;20025;-71
2022/01/04 11:06:57;;;;;;;18.17;9.85;;;7.90;99.90;;;;;;5106675;28;20085;-71
2022/01/04 11:09:22;;;;;;;19.42;10.45;;;7.80;99.90;;;;;;5108968;28;20020;-71
2022/01/04 11:11:48;;;;;;;22.63;10.20;;;7.80;99.90;;;;;;5091484;28;20036;-71
2022/01/04 11:14:14;;;;;;;19.10;9.05;;;7.80;99.90;;;;;;5097912;28;20027;-71
2022/01/04 11:16:41;;;;;;;19.58;9.93;;;7.80;99.90;;;;;;5110227;28;20019;-71
2022/01/04 11:19:07;;;;;;;16.70;9.65;;;7.90;99.90;;;;;;5110287;28;20031;-72
2022/01/04 11:21:36;;;;;;;18.95;9.80;;;7.90;99.90;;;;;;5089452;28;20416;-72
2022/01/04 11:24:07;;;;;;;22.83;10.45;;;7.90;99.90;;;;;;5088372;28;20027;-71
2022/01/04 11:26:33;;;;;;;19.33;9.93;;;7.90;99.90;;;;;;5088558;28;20115;-71
2022/01/04 11:28:59;;;;;;;17.45;9.32;;;7.90;99.90;;;;;;5089815;28;20103;-71
2022/01/04 11:31:54;;;;;;;22.42;11.13;;;7.90;99.90;;;;;;5100935;28;20054;-71
2022/01/04 11:34:59;;;;;;;17.70;10.90;;;7.90;99.90;;;;;;5088941;28;20382;-71
2022/01/04 11:37:25;;;;;;;21.67;11.82;;;7.90;99.90;;;;;;5092756;28;20020;-72
2022/01/04 11:39:52;;;;;;;26.35;13.68;;;7.90;99.90;;;;;;5094057;28;20443;-71
2022/01/04 11:42:38;;;;;;;28.58;14.18;;;7.90;99.90;;;;;;5094820;28;20462;-71
2022/01/04 11:45:08;;;;;;;27.70;14.85;;;7.90;99.90;;;;;;5093589;28;20024;-72
2022/01/04 11:47:35;;;;;;;32.08;18.00;;;7.90;99.90;;;;;;5081679;28;20017;-71
2022/01/04 11:50:15;;;;;;;36.20;19.48;;;7.90;99.90;;;;;;5095755;28;20024;-71
2022/01/04 11:52:52;;;;;;;42.75;24.08;;;7.90;99.90;;;;;;5096520;28;20028;-71
2022/01/04 11:55:29;;;;;;;44.75;25.67;;;7.90;99.90;;;;;;5085135;28;20381;-71
2022/01/04 11:57:57;;;;;;;52.40;27.10;;;7.90;99.90;;;;;;5089241;28;20497;-72
2022/01/04 12:00:27;;;;;;;43.40;25.55;;;7.90;99.90;;;;;;5095763;28;20024;-72
2022/01/04 12:03:10;;;;;;;49.58;26.70;;;7.90;99.90;;;;;;5092820;28;20052;-71
2022/01/04 12:05:39;;;;;;;50.15;27.70;;;7.90;99.90;;;;;;5095767;28;20024;-71
2022/01/04 12:08:21;;;;;;;46.28;26.27;;;7.90;99.90;;;;;;5094193;28;20035;-71
2022/01/04 12:10:50;;;;;;;49.38;27.10;;;8.00;99.90;;;;;;5094590;28;20024;-71
2022/01/04 12:13:20;;;;;;;56.45;30.23;;;8.00;99.90;;;;;;5092313;28;20055;-71
2022/01/04 12:15:50;;;;;;;59.75;31.20;;;8.00;99.90;;;;;;5070917;28;20044;-71
2022/01/04 12:21:03;;;;;;;52.97;28.60;;;8.10;99.90;;;;;;5110905;27;20454;-71
2022/01/04 12:31:35;;;;;;;45.28;24.80;;;8.30;99.90;;;;;;5111784;27;20864;-71
2022/01/04 12:36:41;;;;;;;40.70;22.73;;;8.30;99.90;;;;;;5126638;27;20379;-71
2022/01/04 12:39:13;;;;;;;42.15;22.15;;;8.20;99.90;;;;;;5132069;27;20393;-71
2022/01/04 12:41:42;;;;;;;43.72;23.02;;;8.20;99.90;;;;;;5131804;27;20425;-72
2022/01/04 12:44:10;;;;;;;44.40;24.73;;;8.10;99.90;;;;;;5114038;28;20027;-71
2022/01/04 12:46:40;;;;;;;50.65;24.85;;;8.20;99.90;;;;;;5132009;27;20047;-71
2022/01/04 12:49:09;;;;;;;53.88;26.45;;;8.10;99.90;;;;;;5110177;27;20017;-71
2022/01/04 12:54:19;;;;;;;50.60;28.02;;;8.10;99.90;;;;;;5064427;28;20414;-76
2022/01/04 12:56:48;;;;;;;55.05;29.33;;;8.10;99.90;;;;;;5052717;28;20056;-75
2022/01/04 12:59:37;;;;;;;55.45;29.33;;;8.20;99.90;;;;;;5054546;28;20059;-75
2022/01/04 13:04:50;;;;;;;58.97;32.20;;;8.10;99.90;;;;;;5071517;28;20403;-71
2022/01/04 13:07:19;;;;;;;67.07;32.55;;;8.00;99.90;;;;;;5069863;28;20021;-72
2022/01/04 13:09:55;;;;;;;65.60;33.40;;;8.00;99.90;;;;;;5062656;28;20024;-72